Due to severe server failure at the provider, not all demo sites are operational. Will take some days to rebuilt everything.

Demonstration site - Click on the  for more information

This is an optional block. Switch it on/off in your settings-file: $SITE['bannerTop'] = false; or $SITE['bannerBottom'] = false;

You can display ads, any other important text or photo’s using text / html or PHP code.

You can place one or more at the top and or bottom and it can all be different for content / size .



Visit our other weather sites:

Template documentation
and downloads

And another site



Nearby METAR Reports

   
EBAW - Antwerp
Updated: 17-01-2021 01:20
Overcast  
Overcast  
   Wind: SW 7.4 km/h
Wind: SW 7.4 km/h
Temperature: 1°C
Wind Chill: -1°C
Dew Point: 0°C
Humidity: 93%
Barometer: 1015 hPa
Clouds: Overcast
Visibility: 5 km
Cloud details: Overcast 300 ft
EBAW 170020Z AUTO 22004KT 190V250 5000 // OVC003/// 01/M00 Q1015
EBLG - Liège
Updated: 17-01-2021 01:20
Light Snow, Mostly Cloudy  
Light Snow, Mostly Cloudy  
   Wind: South 13 km/h
Wind: South 13 km/h
Temperature: -1°C
Wind Chill: -5°C
Dew Point: -3°C
Humidity: 86%
Barometer: 1015 hPa
Clouds: Mostly Cloudy
Visibility: 8 km
Cloud details: Mostly Cloudy 800 ft
EBLG 170020Z 19007KT 8000 -SN BKN008 M01/M03 Q1015 R22/890195 TEMPO 2500 -SN BKN004
EBCV - Mons/Bergen
Updated: 17-01-2021 01:25
Mist, Overcast  
Mist, Overcast  
   Wind: SW 9.3 km/h
Wind: SW 9.3 km/h
Temperature: 1°C
Wind Chill: -2°C
Dew Point: 1°C
Humidity: 100%
Barometer: 1016 hPa
Clouds: Overcast
Visibility: 3 km
Cloud details: Overcast 300 ft
EBCV 170025Z AUTO 22005KT 3100 BR OVC003/// 01/01 Q1016 YLO
EHBK - Maastricht
Updated: 17-01-2021 01:25
Overcast  
Overcast  
   Wind: SSW 20.4 km/h
Wind: SSW 20.4 km/h
Temperature: -1°C
Wind Chill: -7°C
Dew Point: -1°C
Humidity: 100%
Barometer: 1015 hPa
Clouds: Overcast
Visibility: 8 km
Cloud details: Mostly Cloudy 900 ft,
Overcast 1000 ft
EHBK 170025Z AUTO 20011KT 8000 BKN009 OVC010 M01/M01 Q1015
ELLX - Luxemburg
Updated: 17-01-2021 01:20
Light Snow, Overcast  
Light Snow, Overcast  
   Wind: South 9.3 km/h
Wind: South 9.3 km/h
Temperature: -3°C
Wind Chill: -7°C
Dew Point: -4°C
Humidity: 93%
Barometer: 1015 hPa
Clouds: Overcast
Visibility: 2 km
Cloud details: Overcast 300 ft
ELLX 170020Z AUTO 18005KT 150V210 2400 -SN OVC003/// M03/M04 Q1015 NOSIG
EBOS - Oostende
Updated: 17-01-2021 01:20
Light Rain, Drizzle, Mostly Cloudy  
Light Rain, Drizzle, Mostly Cloudy  
   Wind: NW 14.8 km/h
Wind: NW 14.8 km/h
Temperature: 5°C
Wind Chill: 2°C
Dew Point: 4°C
Humidity: 93%
Barometer: 1016 hPa
Clouds: Mostly Cloudy
Visibility: 7 km
Cloud details: Few Clouds 1200 ft,
Partly Cloudy 1500 ft,
Mostly Cloudy 2500 ft
EBOS 170020Z 31008KT 7000 -RADZ FEW012 SCT015 BKN025 05/04 Q1016 NOSIG

Script developed by  Saratoga-weather.org Adapted for the template by  Weerstation Leuven

This is an optional block. Switch it on/off in your settings-file: $SITE['bannerTop'] = false; or $SITE['bannerBottom'] = false;

You can display ads, any other important text or photo’s using text / html or PHP code.

You can place one or more at the top and or bottom and it can all be different for content / size .